sensor_id;sensor_type;location;lat;lon;timestamp;P1;durP1;ratioP1;P2;durP2;ratioP2
72369;SDS011;60343;-32.030;115.880;2024-01-30T00:02:29;10.70;;;1.23;;
72369;SDS011;60343;-32.030;115.880;2024-01-30T00:05:04;7.43;;;0.77;;
72369;SDS011;60343;-32.030;115.880;2024-01-30T00:07:39;6.38;;;0.90;;
72369;SDS011;60343;-32.030;115.880;2024-01-30T00:10:13;5.72;;;0.75;;
72369;SDS011;60343;-32.030;115.880;2024-01-30T00:12:53;11.38;;;1.40;;
72369;SDS011;60343;-32.030;115.880;2024-01-30T00:15:27;8.07;;;0.80;;
72369;SDS011;60343;-32.030;115.880;2024-01-30T00:18:03;8.93;;;1.00;;
72369;SDS011;60343;-32.030;115.880;2024-01-30T00:20:39;7.93;;;0.70;;
72369;SDS011;60343;-32.030;115.880;2024-01-30T00:23:13;5.13;;;0.73;;
72369;SDS011;60343;-32.030;115.880;2024-01-30T00:25:47;6.10;;;1.10;;
72369;SDS011;60343;-32.030;115.880;2024-01-30T00:28:28;10.38;;;0.80;;
72369;SDS011;60343;-32.030;115.880;2024-01-30T00:31:02;12.23;;;1.52;;
72369;SDS011;60343;-32.030;115.880;2024-01-30T00:33:38;4.50;;;0.65;;
72369;SDS011;60343;-32.030;115.880;2024-01-30T00:36:12;10.13;;;1.00;;
72369;SDS011;60343;-32.030;115.880;2024-01-30T00:38:48;8.23;;;0.90;;
72369;SDS011;60343;-32.030;115.880;2024-01-30T00:41:22;10.88;;;0.90;;
72369;SDS011;60343;-32.030;115.880;2024-01-30T00:44:03;10.38;;;1.00;;
72369;SDS011;60343;-32.030;115.880;2024-01-30T00:46:37;9.43;;;0.90;;
72369;SDS011;60343;-32.030;115.880;2024-01-30T00:49:11;7.05;;;1.20;;
72369;SDS011;60343;-32.030;115.880;2024-01-30T00:51:46;5.85;;;1.10;;
72369;SDS011;60343;-32.030;115.880;2024-01-30T00:54:20;8.40;;;0.82;;
72369;SDS011;60343;-32.030;115.880;2024-01-30T00:56:54;8.40;;;1.10;;
72369;SDS011;60343;-32.030;115.880;2024-01-30T00:59:34;6.18;;;0.88;;
72369;SDS011;60343;-32.030;115.880;2024-01-30T01:02:09;7.53;;;0.90;;
72369;SDS011;60343;-32.030;115.880;2024-01-30T01:04:43;8.38;;;0.90;;
72369;SDS011;60343;-32.030;115.880;2024-01-30T01:07:17;7.18;;;1.20;;
72369;SDS011;60343;-32.030;115.880;2024-01-30T01:09:53;7.97;;;1.20;;
72369;SDS011;60343;-32.030;115.880;2024-01-30T01:12:27;6.65;;;0.80;;
72369;SDS011;60343;-32.030;115.880;2024-01-30T01:15:07;13.57;;;1.02;;
72369;SDS011;60343;-32.030;115.880;2024-01-30T01:17:42;5.93;;;1.00;;
72369;SDS011;60343;-32.030;115.880;2024-01-30T01:20:16;7.03;;;1.00;;
72369;SDS011;60343;-32.030;115.880;2024-01-30T01:22:50;7.55;;;0.80;;
72369;SDS011;60343;-32.030;115.880;2024-01-30T01:25:25;9.77;;;1.17;;
72369;SDS011;60343;-32.030;115.880;2024-01-30T01:28:00;9.48;;;1.10;;
72369;SDS011;60343;-32.030;115.880;2024-01-30T01:30:39;6.82;;;0.88;;
72369;SDS011;60343;-32.030;115.880;2024-01-30T01:33:14;4.13;;;0.82;;
72369;SDS011;60343;-32.030;115.880;2024-01-30T01:35:48;7.88;;;0.90;;
72369;SDS011;60343;-32.030;115.880;2024-01-30T01:38:24;5.28;;;1.05;;
72369;SDS011;60343;-32.030;115.880;2024-01-30T01:40:58;7.70;;;0.98;;
72369;SDS011;60343;-32.030;115.880;2024-01-30T01:43:32;7.30;;;0.98;;
72369;SDS011;60343;-32.030;115.880;2024-01-30T01:46:12;9.77;;;1.00;;
72369;SDS011;60343;-32.030;115.880;2024-01-30T01:48:46;8.57;;;1.17;;
72369;SDS011;60343;-32.030;115.880;2024-01-30T01:51:21;6.65;;;1.23;;
72369;SDS011;60343;-32.030;115.880;2024-01-30T01:53:56;8.18;;;1.00;;
72369;SDS011;60343;-32.030;115.880;2024-01-30T01:56:32;8.13;;;1.20;;
72369;SDS011;60343;-32.030;115.880;2024-01-30T01:59:07;7.20;;;0.90;;
72369;SDS011;60343;-32.030;115.880;2024-01-30T02:01:47;6.13;;;0.80;;
72369;SDS011;60343;-32.030;115.880;2024-01-30T02:04:21;6.40;;;0.98;;
72369;SDS011;60343;-32.030;115.880;2024-01-30T02:06:56;9.88;;;0.85;;
72369;SDS011;60343;-32.030;115.880;2024-01-30T02:09:30;8.45;;;1.10;;
72369;SDS011;60343;-32.030;115.880;2024-01-30T02:12:04;6.88;;;0.98;;
72369;SDS011;60343;-32.030;115.880;2024-01-30T02:14:44;4.78;;;0.88;;
72369;SDS011;60343;-32.030;115.880;2024-01-30T02:17:26;8.13;;;0.90;;
72369;SDS011;60343;-32.030;115.880;2024-01-30T02:20:02;7.68;;;0.85;;
72369;SDS011;60343;-32.030;115.880;2024-01-30T02:22:43;7.80;;;1.23;;
72369;SDS011;60343;-32.030;115.880;2024-01-30T02:25:17;4.53;;;0.80;;
72369;SDS011;60343;-32.030;115.880;2024-01-30T02:27:51;11.68;;;1.38;;
72369;SDS011;60343;-32.030;115.880;2024-01-30T02:30:26;8.05;;;1.00;;
72369;SDS011;60343;-32.030;115.880;2024-01-30T02:33:00;8.68;;;0.85;;
72369;SDS011;60343;-32.030;115.880;2024-01-30T02:35:34;8.73;;;1.00;;
72369;SDS011;60343;-32.030;115.880;2024-01-30T02:38:14;5.93;;;1.00;;
72369;SDS011;60343;-32.030;115.880;2024-01-30T02:40:49;5.90;;;0.80;;
72369;SDS011;60343;-32.030;115.880;2024-01-30T02:43:23;5.55;;;0.90;;
72369;SDS011;60343;-32.030;115.880;2024-01-30T02:45:57;7.72;;;1.25;;
72369;SDS011;60343;-32.030;115.880;2024-01-30T02:48:32;7.20;;;1.17;;
72369;SDS011;60343;-32.030;115.880;2024-01-30T02:51:06;5.80;;;0.80;;
72369;SDS011;60343;-32.030;115.880;2024-01-30T02:53:45;8.32;;;0.85;;
72369;SDS011;60343;-32.030;115.880;2024-01-30T02:56:21;5.95;;;0.80;;
72369;SDS011;60343;-32.030;115.880;2024-01-30T02:58:55;6.22;;;0.93;;
72369;SDS011;60343;-32.030;115.880;2024-01-30T03:01:29;7.28;;;1.10;;
72369;SDS011;60343;-32.030;115.880;2024-01-30T03:04:04;8.93;;;1.05;;
72369;SDS011;60343;-32.030;115.880;2024-01-30T03:06:38;6.53;;;0.80;;
72369;SDS011;60343;-32.030;115.880;2024-01-30T03:09:22;7.25;;;1.20;;
72369;SDS011;60343;-32.030;115.880;2024-01-30T03:11:56;7.22;;;0.98;;
72369;SDS011;60343;-32.030;115.880;2024-01-30T03:14:31;8.65;;;1.10;;
72369;SDS011;60343;-32.030;115.880;2024-01-30T03:17:05;8.70;;;1.10;;
72369;SDS011;60343;-32.030;115.880;2024-01-30T03:19:39;7.22;;;0.95;;
72369;SDS011;60343;-32.030;115.880;2024-01-30T03:22:13;8.00;;;0.85;;
72369;SDS011;60343;-32.030;115.880;2024-01-30T03:24:53;8.13;;;0.95;;
72369;SDS011;60343;-32.030;115.880;2024-01-30T03:27:27;6.38;;;0.90;;
72369;SDS011;60343;-32.030;115.880;2024-01-30T03:30:02;5.43;;;1.08;;
72369;SDS011;60343;-32.030;115.880;2024-01-30T03:32:31;4.93;;;0.75;;
72369;SDS011;60343;-32.030;115.880;2024-01-30T03:35:05;6.38;;;0.82;;
72369;SDS011;60343;-32.030;115.880;2024-01-30T03:37:40;5.60;;;0.93;;
72369;SDS011;60343;-32.030;115.880;2024-01-30T03:40:20;6.00;;;0.90;;
72369;SDS011;60343;-32.030;115.880;2024-01-30T03:42:55;6.65;;;1.30;;
72369;SDS011;60343;-32.030;115.880;2024-01-30T03:45:29;6.75;;;1.00;;
72369;SDS011;60343;-32.030;115.880;2024-01-30T03:48:03;5.65;;;0.88;;
72369;SDS011;60343;-32.030;115.880;2024-01-30T03:50:39;11.60;;;1.20;;
72369;SDS011;60343;-32.030;115.880;2024-01-30T03:53:13;6.45;;;1.38;;
72369;SDS011;60343;-32.030;115.880;2024-01-30T03:55:54;8.93;;;1.10;;
72369;SDS011;60343;-32.030;115.880;2024-01-30T03:58:29;5.43;;;0.95;;
72369;SDS011;60343;-32.030;115.880;2024-01-30T04:01:03;6.80;;;1.30;;
72369;SDS011;60343;-32.030;115.880;2024-01-30T04:03:37;6.20;;;0.82;;
72369;SDS011;60343;-32.030;115.880;2024-01-30T04:06:12;6.10;;;0.90;;
72369;SDS011;60343;-32.030;115.880;2024-01-30T04:08:46;6.30;;;0.80;;
72369;SDS011;60343;-32.030;115.880;2024-01-30T04:11:27;6.78;;;1.02;;
72369;SDS011;60343;-32.030;115.880;2024-01-30T04:14:01;4.95;;;0.85;;
72369;SDS011;60343;-32.030;115.880;2024-01-30T04:16:35;7.88;;;0.82;;
72369;SDS011;60343;-32.030;115.880;2024-01-30T04:19:09;5.05;;;0.90;;
72369;SDS011;60343;-32.030;115.880;2024-01-30T04:21:45;6.40;;;1.30;;
72369;SDS011;60343;-32.030;115.880;2024-01-30T04:24:19;3.13;;;0.60;;
72369;SDS011;60343;-32.030;115.880;2024-01-30T04:26:59;6.45;;;0.75;;
72369;SDS011;60343;-32.030;115.880;2024-01-30T04:29:33;6.15;;;0.70;;
72369;SDS011;60343;-32.030;115.880;2024-01-30T04:32:07;4.68;;;0.80;;
72369;SDS011;60343;-32.030;115.880;2024-01-30T04:34:42;3.92;;;0.70;;
72369;SDS011;60343;-32.030;115.880;2024-01-30T04:37:16;4.97;;;1.00;;
72369;SDS011;60343;-32.030;115.880;2024-01-30T04:39:50;4.97;;;0.85;;
72369;SDS011;60343;-32.030;115.880;2024-01-30T04:42:31;8.75;;;1.23;;
72369;SDS011;60343;-32.030;115.880;2024-01-30T04:45:06;5.53;;;0.70;;
72369;SDS011;60343;-32.030;115.880;2024-01-30T04:47:41;4.68;;;0.90;;
72369;SDS011;60343;-32.030;115.880;2024-01-30T04:50:15;5.60;;;0.95;;
72369;SDS011;60343;-32.030;115.880;2024-01-30T04:52:49;3.72;;;0.75;;
72369;SDS011;60343;-32.030;115.880;2024-01-30T04:55:24;5.90;;;0.82;;
72369;SDS011;60343;-32.030;115.880;2024-01-30T04:58:03;4.63;;;0.93;;
72369;SDS011;60343;-32.030;115.880;2024-01-30T05:00:38;7.32;;;0.80;;
72369;SDS011;60343;-32.030;115.880;2024-01-30T05:03:12;4.15;;;0.70;;
72369;SDS011;60343;-32.030;115.880;2024-01-30T05:05:46;7.75;;;0.90;;
72369;SDS011;60343;-32.030;115.880;2024-01-30T05:08:20;5.10;;;0.73;;
72369;SDS011;60343;-32.030;115.880;2024-01-30T05:10:54;5.53;;;0.70;;
72369;SDS011;60343;-32.030;115.880;2024-01-30T05:13:35;6.05;;;1.00;;
72369;SDS011;60343;-32.030;115.880;2024-01-30T05:16:09;6.30;;;0.77;;
72369;SDS011;60343;-32.030;115.880;2024-01-30T05:18:43;4.70;;;1.00;;
72369;SDS011;60343;-32.030;115.880;2024-01-30T05:21:18;5.82;;;0.80;;
72369;SDS011;60343;-32.030;115.880;2024-01-30T05:23:52;6.68;;;1.10;;
72369;SDS011;60343;-32.030;115.880;2024-01-30T05:26:26;5.45;;;1.10;;
72369;SDS011;60343;-32.030;115.880;2024-01-30T05:29:06;6.05;;;1.00;;
72369;SDS011;60343;-32.030;115.880;2024-01-30T05:31:40;5.78;;;0.98;;
72369;SDS011;60343;-32.030;115.880;2024-01-30T05:34:14;8.25;;;1.20;;
72369;SDS011;60343;-32.030;115.880;2024-01-30T05:36:49;10.00;;;1.50;;
72369;SDS011;60343;-32.030;115.880;2024-01-30T05:39:24;4.75;;;0.82;;
72369;SDS011;60343;-32.030;115.880;2024-01-30T05:41:59;10.10;;;1.10;;
72369;SDS011;60343;-32.030;115.880;2024-01-30T05:44:39;6.68;;;0.90;;
72369;SDS011;60343;-32.030;115.880;2024-01-30T05:47:13;8.40;;;1.20;;
72369;SDS011;60343;-32.030;115.880;2024-01-30T05:49:49;4.65;;;1.00;;
72369;SDS011;60343;-32.030;115.880;2024-01-30T05:52:23;10.02;;;1.25;;
72369;SDS011;60343;-32.030;115.880;2024-01-30T05:54:57;7.18;;;1.30;;
72369;SDS011;60343;-32.030;115.880;2024-01-30T05:57:31;7.45;;;0.95;;
72369;SDS011;60343;-32.030;115.880;2024-01-30T06:00:13;10.20;;;1.35;;
72369;SDS011;60343;-32.030;115.880;2024-01-30T06:02:49;5.13;;;0.93;;
72369;SDS011;60343;-32.030;115.880;2024-01-30T06:05:23;7.18;;;0.77;;
72369;SDS011;60343;-32.030;115.880;2024-01-30T06:07:57;6.53;;;1.20;;
72369;SDS011;60343;-32.030;115.880;2024-01-30T06:10:31;5.65;;;0.80;;
72369;SDS011;60343;-32.030;115.880;2024-01-30T06:13:06;6.60;;;0.85;;
72369;SDS011;60343;-32.030;115.880;2024-01-30T06:15:46;7.47;;;1.13;;
72369;SDS011;60343;-32.030;115.880;2024-01-30T06:18:21;8.23;;;0.93;;
72369;SDS011;60343;-32.030;115.880;2024-01-30T06:20:57;7.60;;;1.30;;
72369;SDS011;60343;-32.030;115.880;2024-01-30T06:23:31;7.72;;;1.10;;
72369;SDS011;60343;-32.030;115.880;2024-01-30T06:26:06;5.82;;;1.02;;
72369;SDS011;60343;-32.030;115.880;2024-01-30T06:28:40;8.13;;;0.98;;
72369;SDS011;60343;-32.030;115.880;2024-01-30T06:31:19;7.07;;;1.20;;
72369;SDS011;60343;-32.030;115.880;2024-01-30T06:33:54;7.70;;;1.02;;
72369;SDS011;60343;-32.030;115.880;2024-01-30T06:36:28;6.40;;;1.00;;
72369;SDS011;60343;-32.030;115.880;2024-01-30T06:39:02;6.35;;;1.08;;
72369;SDS011;60343;-32.030;115.880;2024-01-30T06:41:37;6.97;;;1.00;;
72369;SDS011;60343;-32.030;115.880;2024-01-30T06:44:12;5.97;;;1.05;;
72369;SDS011;60343;-32.030;115.880;2024-01-30T06:46:52;10.43;;;1.10;;
72369;SDS011;60343;-32.030;115.880;2024-01-30T06:49:26;6.32;;;0.80;;
72369;SDS011;60343;-32.030;115.880;2024-01-30T06:52:04;5.78;;;0.90;;
72369;SDS011;60343;-32.030;115.880;2024-01-30T06:54:39;9.45;;;0.88;;
72369;SDS011;60343;-32.030;115.880;2024-01-30T06:57:13;7.63;;;1.00;;
72369;SDS011;60343;-32.030;115.880;2024-01-30T06:59:47;8.85;;;1.10;;
72369;SDS011;60343;-32.030;115.880;2024-01-30T07:02:27;9.23;;;1.02;;
72369;SDS011;60343;-32.030;115.880;2024-01-30T07:05:01;8.63;;;1.00;;
72369;SDS011;60343;-32.030;115.880;2024-01-30T07:07:36;7.97;;;1.00;;
72369;SDS011;60343;-32.030;115.880;2024-01-30T07:10:10;8.02;;;0.82;;
72369;SDS011;60343;-32.030;115.880;2024-01-30T07:12:44;5.63;;;1.00;;
72369;SDS011;60343;-32.030;115.880;2024-01-30T07:15:20;6.40;;;1.10;;
72369;SDS011;60343;-32.030;115.880;2024-01-30T07:18:00;7.82;;;1.00;;
72369;SDS011;60343;-32.030;115.880;2024-01-30T07:20:36;9.88;;;1.00;;
72369;SDS011;60343;-32.030;115.880;2024-01-30T07:23:12;7.60;;;0.85;;
72369;SDS011;60343;-32.030;115.880;2024-01-30T07:25:46;7.45;;;1.08;;
72369;SDS011;60343;-32.030;115.880;2024-01-30T07:28:21;6.10;;;0.80;;
72369;SDS011;60343;-32.030;115.880;2024-01-30T07:30:56;6.53;;;0.90;;
72369;SDS011;60343;-32.030;115.880;2024-01-30T07:33:36;9.15;;;0.80;;
72369;SDS011;60343;-32.030;115.880;2024-01-30T07:36:10;7.88;;;1.20;;
72369;SDS011;60343;-32.030;115.880;2024-01-30T07:38:45;4.85;;;1.00;;
72369;SDS011;60343;-32.030;115.880;2024-01-30T07:41:20;6.90;;;1.05;;
72369;SDS011;60343;-32.030;115.880;2024-01-30T07:43:54;6.57;;;1.25;;
72369;SDS011;60343;-32.030;115.880;2024-01-30T07:46:28;4.88;;;0.93;;
72369;SDS011;60343;-32.030;115.880;2024-01-30T07:49:08;6.25;;;0.90;;
72369;SDS011;60343;-32.030;115.880;2024-01-30T07:51:42;7.20;;;1.10;;
72369;SDS011;60343;-32.030;115.880;2024-01-30T07:54:17;5.25;;;0.90;;
72369;SDS011;60343;-32.030;115.880;2024-01-30T07:56:51;9.27;;;0.90;;
72369;SDS011;60343;-32.030;115.880;2024-01-30T07:59:25;7.50;;;1.08;;
72369;SDS011;60343;-32.030;115.880;2024-01-30T08:01:59;6.93;;;0.70;;
72369;SDS011;60343;-32.030;115.880;2024-01-30T08:04:39;6.55;;;0.95;;
72369;SDS011;60343;-32.030;115.880;2024-01-30T08:07:15;8.00;;;1.00;;
72369;SDS011;60343;-32.030;115.880;2024-01-30T08:09:49;11.30;;;1.15;;
72369;SDS011;60343;-32.030;115.880;2024-01-30T08:12:24;8.65;;;0.93;;
72369;SDS011;60343;-32.030;115.880;2024-01-30T08:14:59;6.65;;;1.08;;
72369;SDS011;60343;-32.030;115.880;2024-01-30T08:17:33;8.35;;;1.20;;
72369;SDS011;60343;-32.030;115.880;2024-01-30T08:20:13;11.18;;;1.02;;
72369;SDS011;60343;-32.030;115.880;2024-01-30T08:22:48;7.53;;;0.90;;
72369;SDS011;60343;-32.030;115.880;2024-01-30T08:25:22;8.68;;;1.20;;
72369;SDS011;60343;-32.030;115.880;2024-01-30T08:27:56;10.57;;;1.20;;
72369;SDS011;60343;-32.030;115.880;2024-01-30T08:30:30;8.77;;;1.00;;
72369;SDS011;60343;-32.030;115.880;2024-01-30T08:33:05;6.57;;;1.10;;
72369;SDS011;60343;-32.030;115.880;2024-01-30T08:35:45;7.03;;;1.10;;
72369;SDS011;60343;-32.030;115.880;2024-01-30T08:38:19;5.50;;;1.00;;
72369;SDS011;60343;-32.030;115.880;2024-01-30T08:40:54;5.47;;;0.90;;
72369;SDS011;60343;-32.030;115.880;2024-01-30T08:43:29;14.15;;;1.27;;
72369;SDS011;60343;-32.030;115.880;2024-01-30T08:46:03;6.78;;;0.90;;
72369;SDS011;60343;-32.030;115.880;2024-01-30T08:48:39;8.63;;;1.00;;
72369;SDS011;60343;-32.030;115.880;2024-01-30T08:51:19;8.38;;;1.02;;
72369;SDS011;60343;-32.030;115.880;2024-01-30T08:53:54;8.73;;;1.08;;
72369;SDS011;60343;-32.030;115.880;2024-01-30T08:56:29;12.10;;;1.08;;
72369;SDS011;60343;-32.030;115.880;2024-01-30T08:59:03;10.45;;;1.25;;
72369;SDS011;60343;-32.030;115.880;2024-01-30T09:01:37;7.13;;;1.08;;
72369;SDS011;60343;-32.030;115.880;2024-01-30T09:04:13;10.68;;;1.05;;
72369;SDS011;60343;-32.030;115.880;2024-01-30T09:06:52;7.65;;;0.77;;
72369;SDS011;60343;-32.030;115.880;2024-01-30T09:09:27;8.45;;;1.13;;
72369;SDS011;60343;-32.030;115.880;2024-01-30T09:12:01;8.30;;;1.00;;
72369;SDS011;60343;-32.030;115.880;2024-01-30T09:14:38;7.97;;;1.00;;
72369;SDS011;60343;-32.030;115.880;2024-01-30T09:17:13;9.38;;;1.08;;
72369;SDS011;60343;-32.030;115.880;2024-01-30T09:19:47;6.88;;;1.13;;
72369;SDS011;60343;-32.030;115.880;2024-01-30T09:22:27;7.55;;;1.13;;
72369;SDS011;60343;-32.030;115.880;2024-01-30T09:25:01;15.38;;;1.30;;
72369;SDS011;60343;-32.030;115.880;2024-01-30T09:27:36;8.18;;;1.13;;
72369;SDS011;60343;-32.030;115.880;2024-01-30T09:30:10;10.52;;;1.58;;
72369;SDS011;60343;-32.030;115.880;2024-01-30T09:32:45;14.80;;;1.20;;
72369;SDS011;60343;-32.030;115.880;2024-01-30T09:35:19;12.02;;;1.58;;
72369;SDS011;60343;-32.030;115.880;2024-01-30T09:37:59;11.35;;;1.40;;
72369;SDS011;60343;-32.030;115.880;2024-01-30T09:40:33;10.00;;;1.40;;
72369;SDS011;60343;-32.030;115.880;2024-01-30T09:43:08;10.90;;;1.30;;
72369;SDS011;60343;-32.030;115.880;2024-01-30T09:45:46;12.80;;;1.13;;
72369;SDS011;60343;-32.030;115.880;2024-01-30T09:48:23;13.43;;;1.55;;
72369;SDS011;60343;-32.030;115.880;2024-01-30T09:50:58;9.65;;;1.48;;
72369;SDS011;60343;-32.030;115.880;2024-01-30T09:53:39;14.20;;;1.30;;
72369;SDS011;60343;-32.030;115.880;2024-01-30T09:56:15;12.00;;;1.65;;
72369;SDS011;60343;-32.030;115.880;2024-01-30T09:58:49;10.50;;;1.40;;
72369;SDS011;60343;-32.030;115.880;2024-01-30T10:01:23;8.70;;;1.98;;
72369;SDS011;60343;-32.030;115.880;2024-01-30T10:03:59;14.18;;;1.60;;
72369;SDS011;60343;-32.030;115.880;2024-01-30T10:06:34;12.02;;;1.60;;
72369;SDS011;60343;-32.030;115.880;2024-01-30T10:09:14;10.43;;;2.42;;
72369;SDS011;60343;-32.030;115.880;2024-01-30T10:11:49;11.23;;;2.20;;
72369;SDS011;60343;-32.030;115.880;2024-01-30T10:14:25;8.43;;;1.50;;
72369;SDS011;60343;-32.030;115.880;2024-01-30T10:16:59;9.45;;;2.00;;
72369;SDS011;60343;-32.030;115.880;2024-01-30T10:19:35;9.52;;;2.40;;
72369;SDS011;60343;-32.030;115.880;2024-01-30T10:22:10;10.05;;;2.63;;
72369;SDS011;60343;-32.030;115.880;2024-01-30T10:24:49;8.52;;;1.80;;
72369;SDS011;60343;-32.030;115.880;2024-01-30T10:27:26;13.52;;;1.92;;
72369;SDS011;60343;-32.030;115.880;2024-01-30T10:30:00;13.50;;;4.10;;
72369;SDS011;60343;-32.030;115.880;2024-01-30T10:32:34;14.18;;;3.85;;
72369;SDS011;60343;-32.030;115.880;2024-01-30T10:35:09;11.43;;;2.80;;
72369;SDS011;60343;-32.030;115.880;2024-01-30T10:37:46;11.57;;;1.90;;
72369;SDS011;60343;-32.030;115.880;2024-01-30T10:40:34;10.88;;;2.22;;
72369;SDS011;60343;-32.030;115.880;2024-01-30T10:43:17;12.80;;;2.08;;
72369;SDS011;60343;-32.030;115.880;2024-01-30T10:48:41;13.20;;;2.67;;
72369;SDS011;60343;-32.030;115.880;2024-01-30T10:51:17;13.88;;;2.97;;
72369;SDS011;60343;-32.030;115.880;2024-01-30T10:53:53;13.13;;;3.17;;
72369;SDS011;60343;-32.030;115.880;2024-01-30T10:56:34;12.48;;;1.38;;
72369;SDS011;60343;-32.030;115.880;2024-01-30T10:59:09;14.18;;;2.38;;
72369;SDS011;60343;-32.030;115.880;2024-01-30T11:01:45;11.48;;;1.90;;
72369;SDS011;60343;-32.030;115.880;2024-01-30T11:04:19;13.60;;;3.75;;
72369;SDS011;60343;-32.030;115.880;2024-01-30T11:06:54;14.10;;;2.58;;
72369;SDS011;60343;-32.030;115.880;2024-01-30T11:09:30;11.73;;;2.30;;
72369;SDS011;60343;-32.030;115.880;2024-01-30T11:12:18;10.45;;;1.50;;
72369;SDS011;60343;-32.030;115.880;2024-01-30T11:15:05;9.32;;;1.42;;
72369;SDS011;60343;-32.030;115.880;2024-01-30T11:17:44;9.80;;;1.50;;
72369;SDS011;60343;-32.030;115.880;2024-01-30T11:20:25;9.52;;;1.38;;
72369;SDS011;60343;-32.030;115.880;2024-01-30T11:23:01;10.02;;;1.30;;
72369;SDS011;60343;-32.030;115.880;2024-01-30T11:25:38;8.95;;;1.30;;
72369;SDS011;60343;-32.030;115.880;2024-01-30T11:28:20;14.48;;;1.70;;
72369;SDS011;60343;-32.030;115.880;2024-01-30T11:33:37;10.45;;;1.40;;
72369;SDS011;60343;-32.030;115.880;2024-01-30T11:36:12;12.77;;;1.63;;
72369;SDS011;60343;-32.030;115.880;2024-01-30T11:38:47;11.10;;;1.40;;
72369;SDS011;60343;-32.030;115.880;2024-01-30T11:41:22;9.98;;;1.40;;
72369;SDS011;60343;-32.030;115.880;2024-01-30T11:44:04;10.73;;;1.38;;
72369;SDS011;60343;-32.030;115.880;2024-01-30T11:46:38;8.60;;;1.30;;
72369;SDS011;60343;-32.030;115.880;2024-01-30T11:49:13;13.00;;;1.50;;
72369;SDS011;60343;-32.030;115.880;2024-01-30T11:51:48;7.93;;;1.00;;
72369;SDS011;60343;-32.030;115.880;2024-01-30T11:54:24;8.13;;;1.40;;
72369;SDS011;60343;-32.030;115.880;2024-01-30T11:56:59;9.60;;;1.10;;
72369;SDS011;60343;-32.030;115.880;2024-01-30T11:59:39;9.48;;;1.20;;
72369;SDS011;60343;-32.030;115.880;2024-01-30T12:02:15;8.23;;;1.13;;
72369;SDS011;60343;-32.030;115.880;2024-01-30T12:04:50;10.57;;;1.45;;
72369;SDS011;60343;-32.030;115.880;2024-01-30T12:07:24;8.40;;;1.27;;
72369;SDS011;60343;-32.030;115.880;2024-01-30T12:09:58;8.10;;;1.30;;
72369;SDS011;60343;-32.030;115.880;2024-01-30T12:12:34;8.88;;;1.30;;
72369;SDS011;60343;-32.030;115.880;2024-01-30T12:15:14;6.70;;;1.30;;
72369;SDS011;60343;-32.030;115.880;2024-01-30T12:17:50;8.25;;;0.85;;
72369;SDS011;60343;-32.030;115.880;2024-01-30T12:20:24;8.35;;;1.20;;
72369;SDS011;60343;-32.030;115.880;2024-01-30T12:23:00;9.20;;;1.17;;
72369;SDS011;60343;-32.030;115.880;2024-01-30T12:25:34;10.00;;;1.35;;
72369;SDS011;60343;-32.030;115.880;2024-01-30T12:28:09;7.32;;;1.10;;
72369;SDS011;60343;-32.030;115.880;2024-01-30T12:30:50;7.85;;;1.10;;
72369;SDS011;60343;-32.030;115.880;2024-01-30T12:33:27;6.70;;;1.10;;
72369;SDS011;60343;-32.030;115.880;2024-01-30T12:36:02;9.07;;;1.63;;
72369;SDS011;60343;-32.030;115.880;2024-01-30T12:38:36;9.77;;;1.30;;
72369;SDS011;60343;-32.030;115.880;2024-01-30T12:41:11;7.07;;;1.02;;
72369;SDS011;60343;-32.030;115.880;2024-01-30T12:43:45;9.63;;;1.15;;
72369;SDS011;60343;-32.030;115.880;2024-01-30T12:46:25;9.35;;;1.38;;
72369;SDS011;60343;-32.030;115.880;2024-01-30T12:49:01;7.60;;;1.15;;
72369;SDS011;60343;-32.030;115.880;2024-01-30T12:51:35;7.15;;;1.15;;
72369;SDS011;60343;-32.030;115.880;2024-01-30T12:54:09;10.77;;;1.30;;
72369;SDS011;60343;-32.030;115.880;2024-01-30T12:56:45;9.32;;;1.70;;
72369;SDS011;60343;-32.030;115.880;2024-01-30T12:59:19;5.53;;;1.10;;
72369;SDS011;60343;-32.030;115.880;2024-01-30T13:02:00;9.55;;;1.50;;
72369;SDS011;60343;-32.030;115.880;2024-01-30T13:04:35;13.30;;;1.40;;
72369;SDS011;60343;-32.030;115.880;2024-01-30T13:07:09;10.52;;;1.40;;
72369;SDS011;60343;-32.030;115.880;2024-01-30T13:09:43;7.18;;;1.40;;
72369;SDS011;60343;-32.030;115.880;2024-01-30T13:12:17;10.25;;;1.70;;
72369;SDS011;60343;-32.030;115.880;2024-01-30T13:14:52;10.10;;;1.65;;
72369;SDS011;60343;-32.030;115.880;2024-01-30T13:17:33;7.78;;;1.27;;
72369;SDS011;60343;-32.030;115.880;2024-01-30T13:20:08;11.02;;;1.83;;
72369;SDS011;60343;-32.030;115.880;2024-01-30T13:22:45;8.30;;;1.60;;
72369;SDS011;60343;-32.030;115.880;2024-01-30T13:25:21;10.73;;;1.35;;
72369;SDS011;60343;-32.030;115.880;2024-01-30T13:27:55;11.40;;;1.90;;
72369;SDS011;60343;-32.030;115.880;2024-01-30T13:30:30;10.02;;;1.40;;
72369;SDS011;60343;-32.030;115.880;2024-01-30T13:33:10;9.18;;;1.70;;
72369;SDS011;60343;-32.030;115.880;2024-01-30T13:35:45;9.90;;;1.55;;
72369;SDS011;60343;-32.030;115.880;2024-01-30T13:38:19;8.23;;;1.52;;
72369;SDS011;60343;-32.030;115.880;2024-01-30T13:40:53;9.82;;;1.10;;
72369;SDS011;60343;-32.030;115.880;2024-01-30T13:43:28;7.03;;;1.58;;
72369;SDS011;60343;-32.030;115.880;2024-01-30T13:46:03;9.95;;;1.90;;
72369;SDS011;60343;-32.030;115.880;2024-01-30T13:48:43;9.35;;;1.83;;
72369;SDS011;60343;-32.030;115.880;2024-01-30T13:51:17;9.50;;;1.30;;
72369;SDS011;60343;-32.030;115.880;2024-01-30T13:53:51;9.23;;;1.70;;
72369;SDS011;60343;-32.030;115.880;2024-01-30T13:56:26;8.98;;;1.73;;
72369;SDS011;60343;-32.030;115.880;2024-01-30T13:59:00;7.22;;;1.42;;
72369;SDS011;60343;-32.030;115.880;2024-01-30T14:01:34;8.82;;;1.55;;
72369;SDS011;60343;-32.030;115.880;2024-01-30T14:04:16;7.45;;;1.40;;
72369;SDS011;60343;-32.030;115.880;2024-01-30T14:06:50;8.02;;;1.63;;
72369;SDS011;60343;-32.030;115.880;2024-01-30T14:09:25;7.20;;;1.50;;
72369;SDS011;60343;-32.030;115.880;2024-01-30T14:12:00;8.23;;;1.17;;
72369;SDS011;60343;-32.030;115.880;2024-01-30T14:14:34;9.40;;;1.35;;
72369;SDS011;60343;-32.030;115.880;2024-01-30T14:17:09;6.35;;;1.20;;
72369;SDS011;60343;-32.030;115.880;2024-01-30T14:19:48;8.80;;;1.55;;
72369;SDS011;60343;-32.030;115.880;2024-01-30T14:22:23;8.45;;;1.70;;
72369;SDS011;60343;-32.030;115.880;2024-01-30T14:24:57;9.95;;;2.10;;
72369;SDS011;60343;-32.030;115.880;2024-01-30T14:27:31;10.57;;;1.45;;
72369;SDS011;60343;-32.030;115.880;2024-01-30T14:30:05;9.43;;;1.65;;
72369;SDS011;60343;-32.030;115.880;2024-01-30T14:32:43;8.27;;;1.38;;
72369;SDS011;60343;-32.030;115.880;2024-01-30T14:35:23;13.45;;;1.52;;
72369;SDS011;60343;-32.030;115.880;2024-01-30T14:37:58;9.63;;;1.98;;
72369;SDS011;60343;-32.030;115.880;2024-01-30T14:40:33;8.40;;;1.42;;
72369;SDS011;60343;-32.030;115.880;2024-01-30T14:43:08;9.90;;;1.50;;
72369;SDS011;60343;-32.030;115.880;2024-01-30T14:45:42;9.80;;;1.40;;
72369;SDS011;60343;-32.030;115.880;2024-01-30T14:48:18;13.82;;;1.52;;
72369;SDS011;60343;-32.030;115.880;2024-01-30T14:50:58;6.90;;;1.40;;
72369;SDS011;60343;-32.030;115.880;2024-01-30T14:53:33;7.75;;;1.60;;
72369;SDS011;60343;-32.030;115.880;2024-01-30T14:56:07;6.90;;;1.17;;
72369;SDS011;60343;-32.030;115.880;2024-01-30T14:58:43;7.25;;;1.30;;
72369;SDS011;60343;-32.030;115.880;2024-01-30T15:01:19;9.45;;;1.70;;